Portada
METAR-TAF:

METAR-TAF

Aeroports :

Iguaçú, Argentina

latitud: 25-44S, longitud: 054-28W, altitud: 270 m

Observació

L'informe es va fer fa 14 minuts, a les 01:00 UTC
Vent 4 kt del Nord-Est
Temperatura 21°C
Humitat 56%
Pressió 1012 hPa
Visibilitat 10 km o més
sense núvols per sota de 1500 mi sense presència de cumulonimbus.

METAR: SARI 110100Z 05004KT CAVOK 21/12 Q1012

Hora: 22:14 (01:14 UTC)

Pronòstic

L'informe es va fer fa 2 hores i 14 minuts, a les 23:00 UTC
Pronòstic vàlid del 11 a les 00 UTC al 11 a les 24 UTC
Vent 5 kt del Nord-Est
Visibilitat 10 km o més
sense núvols per sota de 1500 mi sense presència de cumulonimbus.
Evolucionant progressivament
l' 11 a les 10 UTC al 11 a les 12 UTC
Vent 15 kt del Sud-Oest

TAF: SARI 102300Z 1100/1124 05005KT CAVOK TX25/1118Z TN10/1112Z BECMG 1110/1112 23015KT

Observacions i pronòstics meteorològics de més de 4000 aeroports (METAR i TAF).

Les estacions disponibles són els punts grocs i vermells al mapa.

Posi el ratolí al punt desitjat per veure el nom de l'estació.

Feu clic per veure les observacions i els pronòstics meteorològics.

Per canviar el mapa: feu clic els botons verds amb una creu de color negre per apropar; al botó verd amb un guió per allunyar la imatge; o en les fletxes verdes per a mapes adjacents.


METAR-TAF: